Time,TemperatureF,DewpointF,PressureIn,WindDirection,WindDirectionDegrees,WindSpeedMPH,WindSpeedGustMPH,Humidity,HourlyPrecipIn,Conditions,Clouds,dailyrainin,SoftwareType,DateUTC
2013-07-01 00:01:00,75.0,74.0,-100.00,WNW,283,2.0,3.0,96,-99.99,,,-99.99,,2013-07-01 04:01:00,
2013-07-01 00:11:00,75.0,74.0,-100.00,WNW,283,2.0,3.0,96,-99.99,,,-99.99,,2013-07-01 04:11:00,
2013-07-01 00:32:00,76.0,75.0,-100.00,South,177,2.0,3.0,97,-99.99,,,-99.99,,2013-07-01 04:32:00,
2013-07-01 00:43:00,75.0,75.0,-100.00,East,93,1.0,3.0,97,-99.99,,,-99.99,,2013-07-01 04:43:00,
2013-07-01 00:53:00,75.0,75.0,-100.00,East,93,1.0,3.0,97,-99.99,,,-99.99,,2013-07-01 04:53:00,
2013-07-01 01:02:00,75.0,74.0,-100.00,SW,233,7.0,20.0,96,-99.99,,,-99.99,,2013-07-01 05:02:00,
2013-07-01 01:11:00,75.0,74.0,-100.00,SW,233,7.0,20.0,96,-99.99,,,-99.99,,2013-07-01 05:11:00,
2013-07-01 01:22:00,75.0,74.0,-100.00,SW,233,7.0,20.0,96,-99.99,,,-99.99,,2013-07-01 05:22:00,
2013-07-01 01:33:00,74.0,73.0,-100.00,West,269,3.0,5.0,94,-99.99,,,-99.99,,2013-07-01 05:33:00,
2013-07-01 01:42:00,74.0,73.0,-100.00,West,268,2.0,4.0,97,-99.99,,,-99.99,,2013-07-01 05:42:00,
2013-07-01 01:52:00,74.0,73.0,-100.00,West,268,2.0,4.0,97,-99.99,,,-99.99,,2013-07-01 05:52:00,
2013-07-01 02:02:00,74.0,73.0,-100.00,SE,145,4.0,8.0,97,-99.99,,,-99.99,,2013-07-01 06:02:00,
2013-07-01 02:12:00,74.0,73.0,-100.00,SE,145,4.0,8.0,97,-99.99,,,-99.99,,2013-07-01 06:12:00,
2013-07-01 02:33:00,74.0,73.0,-100.00,South,178,4.0,8.0,97,-99.99,,,-99.99,,2013-07-01 06:33:00,
2013-07-01 02:43:00,74.0,73.0,-100.00,SSE,147,4.0,6.0,97,-99.99,,,-99.99,,2013-07-01 06:43:00,
2013-07-01 02:53:00,74.0,73.0,-100.00,SSE,147,4.0,6.0,97,-99.99,,,-99.99,,2013-07-01 06:53:00,
2013-07-01 03:01:00,73.0,73.0,-100.00,East,99,5.0,13.0,97,-99.99,,,-99.99,,2013-07-01 07:01:00,
2013-07-01 03:11:00,73.0,73.0,-100.00,East,99,5.0,13.0,97,-99.99,,,-99.99,,2013-07-01 07:11:00,
2013-07-01 03:33:00,73.0,73.0,-100.00,SSE,148,3.0,8.0,97,-99.99,,,-99.99,,2013-07-01 07:33:00,
2013-07-01 03:43:00,73.0,72.0,-100.00,South,188,8.0,17.0,97,-99.99,,,-99.99,,2013-07-01 07:43:00,
2013-07-01 03:53:00,73.0,72.0,-100.00,South,188,8.0,17.0,97,-99.99,,,-99.99,,2013-07-01 07:53:00,
2013-07-01 04:01:00,72.0,72.0,-100.00,SW,234,3.0,12.0,97,-99.99,,,-99.99,,2013-07-01 08:01:00,
2013-07-01 04:12:00,72.0,72.0,-100.00,SW,234,3.0,12.0,97,-99.99,,,-99.99,,2013-07-01 08:12:00,
2013-07-01 04:33:00,72.0,71.0,-100.00,SW,226,2.0,5.0,97,-99.99,,,-99.99,,2013-07-01 08:33:00,
2013-07-01 04:43:00,72.0,72.0,-100.00,NE,52,2.0,2.0,97,-99.99,,,-99.99,,2013-07-01 08:43:00,
2013-07-01 04:52:00,72.0,72.0,-100.00,NE,52,2.0,2.0,97,-99.99,,,-99.99,,2013-07-01 08:52:00,
2013-07-01 05:02:00,72.0,72.0,-100.00,ESE,107,4.0,15.0,97,-99.99,,,-99.99,,2013-07-01 09:02:00,
2013-07-01 05:12:00,72.0,72.0,-100.00,ESE,107,4.0,15.0,97,-99.99,,,-99.99,,2013-07-01 09:12:00,
2013-07-01 05:34:00,73.0,72.0,-100.00,South,182,10.0,21.0,97,-99.99,,,-99.99,,2013-07-01 09:34:00,
2013-07-01 05:43:00,71.0,69.0,-100.00,SW,221,4.0,9.0,95,-99.99,,,-99.99,,2013-07-01 09:43:00,
2013-07-01 05:53:00,71.0,69.0,-100.00,SW,221,4.0,9.0,95,-99.99,,,-99.99,,2013-07-01 09:53:00,
2013-07-01 06:03:00,71.0,69.0,-100.00,WSW,245,2.0,4.0,96,-99.99,,,-99.99,,2013-07-01 10:03:00,
2013-07-01 06:11:00,71.0,69.0,-100.00,WSW,245,2.0,4.0,96,-99.99,,,-99.99,,2013-07-01 10:11:00,
2013-07-01 06:33:00,71.0,70.0,-100.00,ESE,109,2.0,3.0,96,-99.99,,,-99.99,,2013-07-01 10:33:00,
2013-07-01 06:43:00,70.0,70.0,-100.00,ENE,64,2.0,5.0,97,-99.99,,,-99.99,,2013-07-01 10:43:00,
2013-07-01 06:52:00,70.0,70.0,-100.00,ENE,64,2.0,5.0,97,-99.99,,,-99.99,,2013-07-01 10:52:00,
2013-07-01 07:02:00,71.0,70.0,-100.00,ENE,73,3.0,5.0,97,-99.99,,,-99.99,,2013-07-01 11:02:00,
2013-07-01 07:12:00,71.0,70.0,-100.00,ENE,73,3.0,5.0,97,-99.99,,,-99.99,,2013-07-01 11:12:00,
2013-07-01 07:33:00,71.0,70.0,-100.00,SSE,163,1.0,4.0,97,-99.99,,,-99.99,,2013-07-01 11:33:00,
2013-07-01 07:43:00,71.0,71.0,-100.00,ENE,75,2.0,4.0,98,-99.99,,,-99.99,,2013-07-01 11:43:00,
2013-07-01 07:52:00,71.0,71.0,-100.00,ENE,75,2.0,4.0,98,-99.99,,,-99.99,,2013-07-01 11:52:00,
2013-07-01 08:01:00,72.0,71.0,-100.00,East,89,2.0,5.0,98,-99.99,,,-99.99,,2013-07-01 12:01:00,
2013-07-01 08:11:00,72.0,71.0,-100.00,East,89,2.0,5.0,98,-99.99,,,-99.99,,2013-07-01 12:11:00,
2013-07-01 08:33:00,72.0,72.0,-100.00,ESE,114,1.0,3.0,98,-99.99,,,-99.99,,2013-07-01 12:33:00,
2013-07-01 08:43:00,74.0,74.0,-100.00,SE,134,4.0,9.0,98,-99.99,,,-99.99,,2013-07-01 12:43:00,
2013-07-01 08:53:00,74.0,74.0,-100.00,SE,134,4.0,9.0,98,-99.99,,,-99.99,,2013-07-01 12:53:00,
2013-07-01 09:02:00,75.0,74.0,-100.00,SSE,151,6.0,10.0,95,-99.99,,,-99.99,,2013-07-01 13:02:00,
2013-07-01 09:12:00,75.0,74.0,-100.00,SSE,151,6.0,10.0,95,-99.99,,,-99.99,,2013-07-01 13:12:00,
2013-07-01 09:33:00,75.0,73.0,-100.00,SE,141,5.0,8.0,94,-99.99,,,-99.99,,2013-07-01 13:33:00,
2013-07-01 09:53:00,78.0,74.0,-100.00,SSE,155,6.0,10.0,88,-99.99,,,-99.99,,2013-07-01 13:53:00,
2013-07-01 10:11:00,80.0,75.0,-100.00,SSE,150,7.0,12.0,84,-99.99,,,-99.99,,2013-07-01 14:11:00,
2013-07-01 10:34:00,81.0,75.0,-100.00,SSE,166,6.0,10.0,83,-99.99,,,-99.99,,2013-07-01 14:34:00,
2013-07-01 10:43:00,84.0,76.0,-100.00,South,174,7.0,15.0,77,-99.99,,,-99.99,,2013-07-01 14:43:00,
2013-07-01 10:53:00,84.0,76.0,-100.00,South,174,7.0,15.0,77,-99.99,,,-99.99,,2013-07-01 14:53:00,
2013-07-01 11:02:00,84.0,76.0,-100.00,South,174,7.0,15.0,77,-99.99,,,-99.99,,2013-07-01 15:02:00,
2013-07-01 11:12:00,83.0,75.0,-100.00,South,178,9.0,19.0,75,-99.99,,,-99.99,,2013-07-01 15:12:00,
2013-07-01 11:34:00,83.0,74.0,-100.00,South,173,10.0,19.0,73,-99.99,,,-99.99,,2013-07-01 15:34:00,
2013-07-01 11:43:00,85.0,76.0,-100.00,South,183,9.0,18.0,72,-99.99,,,-99.99,,2013-07-01 15:43:00,
2013-07-01 11:53:00,85.0,76.0,-100.00,South,183,9.0,18.0,72,-99.99,,,-99.99,,2013-07-01 15:53:00,
2013-07-01 12:01:00,85.0,76.0,-100.00,South,183,9.0,18.0,72,-99.99,,,-99.99,,2013-07-01 16:01:00,
2013-07-01 12:11:00,85.0,74.0,-100.00,South,172,10.0,16.0,71,-99.99,,,-99.99,,2013-07-01 16:11:00,
2013-07-01 12:22:00,86.0,75.0,-100.00,South,171,11.0,22.0,70,-99.99,,,-99.99,,2013-07-01 16:22:00,
2013-07-01 12:33:00,86.0,75.0,-100.00,South,171,11.0,22.0,70,-99.99,,,-99.99,,2013-07-01 16:33:00,
2013-07-01 12:53:00,79.0,72.0,-100.00,South,187,14.0,32.0,79,-99.99,,,-99.99,,2013-07-01 16:53:00,
2013-07-01 13:02:00,79.0,72.0,-100.00,South,187,14.0,32.0,79,-99.99,,,-99.99,,2013-07-01 17:02:00,
2013-07-01 13:53:00,73.0,72.0,-100.00,SSW,198,3.0,8.0,96,-99.99,,,-99.99,,2013-07-01 17:53:00,
2013-07-01 14:11:00,74.0,73.0,-100.00,SSW,208,1.0,2.0,97,-99.99,,,-99.99,,2013-07-01 18:11:00,
2013-07-01 14:33:00,75.0,74.0,-100.00,East,91,3.0,6.0,96,-99.99,,,-99.99,,2013-07-01 18:33:00,
2013-07-01 14:43:00,75.0,74.0,-100.00,East,91,3.0,6.0,96,-99.99,,,-99.99,,2013-07-01 18:43:00,
2013-07-01 14:53:00,77.0,74.0,-100.00,ESE,102,2.0,4.0,91,-99.99,,,-99.99,,2013-07-01 18:53:00,
2013-07-01 15:11:00,76.0,73.0,-100.00,SE,136,8.0,31.0,91,-99.99,,,-99.99,,2013-07-01 19:11:00,
2013-07-01 15:33:00,72.0,71.0,-100.00,South,177,3.0,7.0,95,-99.99,,,-99.99,,2013-07-01 19:33:00,
2013-07-01 15:44:00,71.0,70.0,-100.00,SSW,207,8.0,18.0,93,-99.99,,,-99.99,,2013-07-01 19:44:00,
2013-07-01 15:53:00,71.0,70.0,-100.00,SSW,207,8.0,18.0,93,-99.99,,,-99.99,,2013-07-01 19:53:00,
2013-07-01 16:02:00,71.0,70.0,-100.00,SSW,207,8.0,18.0,93,-99.99,,,-99.99,,2013-07-01 20:02:00,
2013-07-01 16:11:00,71.0,69.0,-100.00,SW,223,5.0,10.0,94,-99.99,,,-99.99,,2013-07-01 20:11:00,
2013-07-01 16:22:00,71.0,69.0,-100.00,SW,223,5.0,10.0,94,-99.99,,,-99.99,,2013-07-01 20:22:00,
2013-07-01 16:43:00,73.0,71.0,-100.00,SSW,202,2.0,4.0,96,-99.99,,,-99.99,,2013-07-01 20:43:00,
2013-07-01 16:52:00,73.0,71.0,-100.00,SSW,202,2.0,4.0,96,-99.99,,,-99.99,,2013-07-01 20:52:00,
2013-07-01 17:02:00,73.0,71.0,-100.00,SSW,202,2.0,4.0,96,-99.99,,,-99.99,,2013-07-01 21:02:00,
2013-07-01 17:11:00,74.0,73.0,-100.00,SE,138,3.0,5.0,96,-99.99,,,-99.99,,2013-07-01 21:11:00,
2013-07-01 17:34:00,75.0,74.0,-100.00,SSE,150,3.0,5.0,95,-99.99,,,-99.99,,2013-07-01 21:34:00,
2013-07-01 17:43:00,78.0,75.0,-100.00,South,182,3.0,5.0,91,-99.99,,,-99.99,,2013-07-01 21:43:00,
2013-07-01 17:53:00,78.0,75.0,-100.00,South,182,3.0,5.0,91,-99.99,,,-99.99,,2013-07-01 21:53:00,
2013-07-01 18:11:00,79.0,76.0,-100.00,South,180,3.0,7.0,90,-99.99,,,-99.99,,2013-07-01 22:11:00,
2013-07-01 18:43:00,79.0,76.0,-100.00,South,181,3.0,7.0,87,-99.99,,,-99.99,,2013-07-01 22:43:00,
2013-07-01 18:53:00,79.0,76.0,-100.00,South,181,3.0,7.0,87,-99.99,,,-99.99,,2013-07-01 22:53:00,
2013-07-01 19:01:00,79.0,75.0,-100.00,South,173,2.0,5.0,87,-99.99,,,-99.99,,2013-07-01 23:01:00,
2013-07-01 19:11:00,79.0,75.0,-100.00,South,173,2.0,5.0,87,-99.99,,,-99.99,,2013-07-01 23:11:00,
2013-07-01 19:33:00,79.0,75.0,-100.00,SSE,168,1.0,3.0,89,-99.99,,,-99.99,,2013-07-01 23:33:00,
2013-07-01 19:44:00,79.0,76.0,-100.00,SE,140,3.0,4.0,90,-99.99,,,-99.99,,2013-07-01 23:44:00,
2013-07-01 19:53:00,79.0,76.0,-100.00,SE,140,3.0,4.0,90,-99.99,,,-99.99,,2013-07-01 23:53:00,
2013-07-01 20:01:00,78.0,76.0,-100.00,East,91,3.0,6.0,91,-99.99,,,-99.99,,2013-07-02 00:01:00,
2013-07-01 20:12:00,78.0,76.0,-100.00,East,91,3.0,6.0,91,-99.99,,,-99.99,,2013-07-02 00:12:00,
2013-07-01 20:34:00,77.0,75.0,-100.00,East,89,4.0,9.0,94,-99.99,,,-99.99,,2013-07-02 00:34:00,
2013-07-01 20:43:00,74.0,72.0,-100.00,East,98,5.0,11.0,92,-99.99,,,-99.99,,2013-07-02 00:43:00,
2013-07-01 20:53:00,74.0,72.0,-100.00,East,98,5.0,11.0,92,-99.99,,,-99.99,,2013-07-02 00:53:00,
2013-07-01 21:01:00,74.0,72.0,-100.00,East,86,4.0,7.0,92,-99.99,,,-99.99,,2013-07-02 01:01:00,
2013-07-01 21:11:00,74.0,72.0,-100.00,East,86,4.0,7.0,92,-99.99,,,-99.99,,2013-07-02 01:11:00,
2013-07-01 21:33:00,73.0,71.0,-100.00,ENE,76,4.0,7.0,93,-99.99,,,-99.99,,2013-07-02 01:33:00,
2013-07-01 21:53:00,73.0,71.0,-100.00,East,92,2.0,5.0,95,-99.99,,,-99.99,,2013-07-02 01:53:00,
2013-07-01 22:02:00,73.0,71.0,-100.00,East,92,2.0,5.0,95,-99.99,,,-99.99,,2013-07-02 02:02:00,
2013-07-01 22:12:00,73.0,71.0,-100.00,ESE,105,2.0,5.0,95,-99.99,,,-99.99,,2013-07-02 02:12:00,
2013-07-01 22:34:00,73.0,71.0,-100.00,East,94,1.0,2.0,95,-99.99,,,-99.99,,2013-07-02 02:34:00,
2013-07-01 22:53:00,72.0,71.0,-100.00,East,90,2.0,3.0,96,-99.99,,,-99.99,,2013-07-02 02:53:00,
2013-07-01 23:02:00,72.0,71.0,-100.00,East,90,2.0,3.0,96,-99.99,,,-99.99,,2013-07-02 03:02:00,
2013-07-01 23:12:00,72.0,71.0,-100.00,ESE,104,2.0,4.0,96,-99.99,,,-99.99,,2013-07-02 03:12:00,
2013-07-01 23:24:00,72.0,71.0,-100.00,ESE,104,2.0,4.0,96,-99.99,,,-99.99,,2013-07-02 03:24:00,
2013-07-01 23:43:00,72.0,71.0,-100.00,ESE,110,2.0,4.0,97,-99.99,,,-99.99,,2013-07-02 03:43:00,
2013-07-01 23:53:00,72.0,72.0,-100.00,ESE,116,3.0,6.0,97,-99.99,,,-99.99,,2013-07-02 03:53:00,